createdAt,value
2022-08-05T00:01:36.296Z,50.33
2022-08-05T00:04:18.011Z,50.23
2022-08-05T00:06:47.210Z,50.25
2022-08-05T00:09:15.935Z,50.33
2022-08-05T00:11:48.706Z,50.13
2022-08-05T00:14:29.002Z,50.28
2022-08-05T00:17:03.071Z,50.65
2022-08-05T00:19:33.295Z,50.24
2022-08-05T00:22:15.516Z,50.48
2022-08-05T00:24:45.567Z,50.92
2022-08-05T00:27:22.857Z,50.63
2022-08-05T00:30:11.271Z,50.67
2022-08-05T00:32:39.283Z,50.88
2022-08-05T00:35:08.747Z,50.55
2022-08-05T00:37:52.412Z,50.62
2022-08-05T00:40:28.339Z,51.08
2022-08-05T00:43:00.538Z,50.96
2022-08-05T00:45:42.965Z,51.31
2022-08-05T00:48:13.542Z,51.15
2022-08-05T00:50:44.378Z,51.10
2022-08-05T00:54:01.029Z,51.36
2022-08-05T00:56:05.680Z,51.30
2022-08-05T00:58:36.253Z,51.51
2022-08-05T01:01:08.712Z,51.22
2022-08-05T01:03:38.211Z,51.52
2022-08-05T01:06:14.216Z,51.49
2022-08-05T01:08:44.815Z,51.48
2022-08-05T01:11:36.943Z,52.26
2022-08-05T01:14:28.081Z,52.33
2022-08-05T01:17:06.456Z,52.06
2022-08-05T01:20:02.368Z,52.02
2022-08-05T01:23:15.542Z,52.47
2022-08-05T01:25:59.585Z,51.86
2022-08-05T01:28:39.491Z,52.67
2022-08-05T01:31:14.697Z,52.65
2022-08-05T01:34:00.141Z,53.15
2022-08-05T01:36:34.269Z,52.96
2022-08-05T01:39:12.206Z,53.04
2022-08-05T01:41:44.502Z,53.05
2022-08-05T01:44:14.182Z,52.93
2022-08-05T01:46:46.381Z,52.78
2022-08-05T01:49:23.917Z,53.16
2022-08-05T01:51:59.034Z,53.02
2022-08-05T01:54:52.987Z,53.42
2022-08-05T01:58:11.161Z,53.36
2022-08-05T02:00:19.446Z,52.91
2022-08-05T02:02:57.701Z,53.55
2022-08-05T02:05:34.141Z,53.58
2022-08-05T02:08:02.133Z,53.02
2022-08-05T02:10:36.720Z,53.40
2022-08-05T02:13:19.128Z,53.85
2022-08-05T02:15:59.726Z,53.55
2022-08-05T02:18:41.860Z,53.55
2022-08-05T02:21:16.556Z,53.46
2022-08-05T02:23:52.447Z,53.35
2022-08-05T02:26:27.679Z,53.51
2022-08-05T02:28:58.224Z,53.42
2022-08-05T02:31:34.843Z,53.79
2022-08-05T02:34:09.270Z,54.08
2022-08-05T02:36:44.098Z,54.10
2022-08-05T02:39:16.702Z,53.82
2022-08-05T02:42:00.663Z,53.68
2022-08-05T02:44:30.717Z,53.90
2022-08-05T02:47:00.975Z,53.87
2022-08-05T02:49:36.558Z,54.11
2022-08-05T02:52:29.475Z,54.03
2022-08-05T02:55:05.606Z,54.08
2022-08-05T02:58:10.220Z,53.81
2022-08-05T03:00:29.159Z,53.83
2022-08-05T03:02:58.845Z,54.06
2022-08-05T03:06:55.504Z,54.09
2022-08-05T03:08:16.566Z,53.87
2022-08-05T03:11:53.256Z,53.86
2022-08-05T03:13:51.630Z,53.70
2022-08-05T03:16:22.658Z,54.02
2022-08-05T03:18:50.484Z,53.96
2022-08-05T03:21:20.127Z,53.96
2022-08-05T03:23:49.694Z,53.91
2022-08-05T03:26:31.312Z,54.06
2022-08-05T03:29:02.458Z,53.91
2022-08-05T03:31:56.990Z,54.22
2022-08-05T03:34:20.173Z,54.17
2022-08-05T03:36:52.355Z,54.17
2022-08-05T03:39:27.128Z,53.65
2022-08-05T03:41:58.448Z,53.99
2022-08-05T03:44:28.982Z,53.17
2022-08-05T03:46:56.836Z,53.45
2022-08-05T03:49:24.360Z,53.26
2022-08-05T03:52:39.072Z,53.60
2022-08-05T03:56:01.797Z,53.47
2022-08-05T03:58:05.332Z,53.32
2022-08-05T04:00:33.167Z,53.65
2022-08-05T04:03:03.095Z,53.61
2022-08-05T04:05:34.696Z,53.91
2022-08-05T04:08:05.663Z,53.59
2022-08-05T04:10:44.095Z,53.17
2022-08-05T04:13:12.388Z,53.08
2022-08-05T04:16:02.839Z,52.82
2022-08-05T04:18:27.987Z,52.95
2022-08-05T04:20:57.480Z,52.85
2022-08-05T04:24:04.960Z,53.06
2022-08-05T04:26:14.846Z,52.87
2022-08-05T04:28:51.058Z,52.98
2022-08-05T04:31:20.128Z,53.25
2022-08-05T04:34:17.903Z,53.38
2022-08-05T04:36:46.121Z,53.39
2022-08-05T04:39:19.075Z,53.49
2022-08-05T04:41:48.121Z,53.18
2022-08-05T04:44:21.540Z,53.10
2022-08-05T04:46:59.585Z,53.04
2022-08-05T04:49:38.368Z,53.03
2022-08-05T04:52:16.048Z,53.44
2022-08-05T04:54:43.652Z,53.17
2022-08-05T04:57:13.639Z,53.37
2022-08-05T04:59:41.263Z,53.06
2022-08-05T05:02:37.281Z,52.91
2022-08-05T05:05:01.729Z,53.18
2022-08-05T05:07:35.381Z,52.90
2022-08-05T05:10:06.546Z,53.05
2022-08-05T05:12:34.403Z,52.70
2022-08-05T05:15:06.099Z,52.85
2022-08-05T05:17:57.067Z,53.02
2022-08-05T05:20:28.495Z,52.51
2022-08-05T05:23:04.176Z,52.24
2022-08-05T05:25:41.070Z,52.38
2022-08-05T05:28:10.036Z,51.87
2022-08-05T05:30:39.298Z,51.41
2022-08-05T05:33:16.981Z,51.62
2022-08-05T05:35:47.623Z,51.49
2022-08-05T05:38:26.801Z,51.27
2022-08-05T05:40:58.568Z,51.11
2022-08-05T05:43:54.810Z,50.91
2022-08-05T05:46:21.910Z,50.36
2022-08-05T05:48:49.567Z,49.82
2022-08-05T05:51:21.798Z,50.24
2022-08-05T05:53:57.921Z,49.75
2022-08-05T05:56:31.957Z,49.13
2022-08-05T05:59:06.934Z,48.83
2022-08-05T06:01:39.583Z,48.29
2022-08-05T06:04:12.055Z,48.13
2022-08-05T06:06:42.998Z,47.91
2022-08-05T06:09:17.645Z,47.14
2022-08-05T06:12:01.696Z,46.49
2022-08-05T06:14:31.493Z,46.46
2022-08-05T06:17:02.086Z,45.60
2022-08-05T06:19:56.533Z,45.10
2022-08-05T06:22:28.342Z,44.84
2022-08-05T06:24:55.924Z,44.71
2022-08-05T06:28:11.070Z,43.99
2022-08-05T06:30:16.838Z,43.09
2022-08-05T06:32:47.787Z,42.57
2022-08-05T06:36:03.167Z,41.40
2022-08-05T06:38:11.324Z,41.14
2022-08-05T06:40:44.904Z,40.74
2022-08-05T06:43:58.622Z,40.36
2022-08-05T06:46:06.945Z,39.92
2022-08-05T06:48:55.321Z,39.23
2022-08-05T06:51:29.416Z,38.27
2022-08-05T06:54:02.435Z,37.90
2022-08-05T06:56:34.104Z,37.41
2022-08-05T06:59:08.503Z,36.92
2022-08-05T07:01:42.270Z,36.79
2022-08-05T07:04:10.842Z,36.66
2022-08-05T07:06:41.772Z,36.23
2022-08-05T07:09:09.444Z,34.95
2022-08-05T07:11:39.898Z,35.08
2022-08-05T07:14:29.796Z,34.47
2022-08-05T07:18:00.823Z,33.99
2022-08-05T07:22:41.992Z,32.31
2022-08-05T07:25:54.287Z,32.07
2022-08-05T07:28:05.374Z,31.50
2022-08-05T07:30:38.816Z,31.10
2022-08-05T07:33:16.850Z,30.37
2022-08-05T07:36:03.791Z,29.79
2022-08-05T07:38:43.421Z,29.66
2022-08-05T07:42:08.032Z,29.51
2022-08-05T07:44:07.534Z,28.59
2022-08-05T07:46:45.937Z,28.31
2022-08-05T07:49:16.326Z,27.92
2022-08-05T07:51:53.909Z,27.70
2022-08-05T07:54:31.486Z,27.46
2022-08-05T07:57:17.662Z,27.02
2022-08-05T07:59:52.283Z,26.08
2022-08-05T08:02:26.784Z,25.39
2022-08-05T08:04:59.725Z,24.99
2022-08-05T08:07:29.012Z,24.56
2022-08-05T08:10:07.070Z,24.40
2022-08-05T08:12:49.411Z,24.02
2022-08-05T08:15:17.621Z,23.62
2022-08-05T08:18:14.239Z,24.10
2022-08-05T08:21:03.094Z,23.73
2022-08-05T08:24:01.741Z,23.33
2022-08-05T08:26:17.801Z,22.20
2022-08-05T08:29:09.793Z,22.01
2022-08-05T08:31:50.519Z,21.25
2022-08-05T08:34:30.521Z,21.15
2022-08-05T08:37:04.572Z,20.50
2022-08-05T08:39:37.458Z,19.68
2022-08-05T08:42:32.395Z,19.57
2022-08-05T08:45:18.683Z,20.05
2022-08-05T08:48:10.497Z,19.55
2022-08-05T08:51:04.108Z,19.26
2022-08-05T08:53:36.296Z,18.74
2022-08-05T08:56:06.497Z,18.44
2022-08-05T08:58:43.331Z,18.42
2022-08-05T09:01:16.842Z,18.01
2022-08-05T09:03:54.516Z,18.07
2022-08-05T09:06:30.529Z,17.24
2022-08-05T09:09:00.684Z,17.10
2022-08-05T09:11:53.819Z,16.63
2022-08-05T09:14:57.193Z,16.63
2022-08-05T09:17:41.220Z,16.62
2022-08-05T09:20:05.094Z,16.38
2022-08-05T09:23:09.068Z,15.83
2022-08-05T09:26:01.205Z,15.80
2022-08-05T09:28:32.164Z,15.31
2022-08-05T09:31:43.313Z,14.50
2022-08-05T09:34:07.158Z,14.89
2022-08-05T09:36:55.697Z,14.68
2022-08-05T09:39:45.156Z,14.86
2022-08-05T09:42:23.099Z,14.95
2022-08-05T09:44:56.379Z,14.85
2022-08-05T09:47:34.960Z,14.98
2022-08-05T09:50:18.177Z,15.22
2022-08-05T09:53:01.765Z,14.92
2022-08-05T09:55:56.349Z,14.61
2022-08-05T09:58:24.707Z,14.49
2022-08-05T10:00:59.290Z,14.18
2022-08-05T10:03:56.557Z,13.66
2022-08-05T10:06:20.628Z,13.45
2022-08-05T10:08:53.990Z,13.30
2022-08-05T10:11:35.022Z,13.16
2022-08-05T10:14:38.592Z,13.10
2022-08-05T10:17:37.379Z,13.70
2022-08-05T10:20:10.086Z,14.44
2022-08-05T10:22:43.161Z,14.17
2022-08-05T10:25:19.786Z,14.73
2022-08-05T10:28:12.679Z,14.82
2022-08-05T10:32:47.137Z,14.48
2022-08-05T10:33:36.059Z,13.80
2022-08-05T10:36:06.596Z,13.63
2022-08-05T10:38:37.875Z,13.98
2022-08-05T10:41:45.534Z,13.50
2022-08-05T10:44:19.144Z,13.98
2022-08-05T10:46:56.470Z,14.44
2022-08-05T10:49:26.915Z,15.37
2022-08-05T10:52:05.220Z,15.54
2022-08-05T10:55:16.017Z,17.32
2022-08-05T10:57:51.224Z,19.88
2022-08-05T11:00:24.697Z,21.20
2022-08-05T11:03:23.300Z,22.39
2022-08-05T11:06:15.450Z,23.07
2022-08-05T11:09:13.017Z,22.71
2022-08-05T11:11:53.988Z,21.29
2022-08-05T11:15:01.433Z,20.73
2022-08-05T11:18:00.349Z,20.89
2022-08-05T11:20:44.027Z,20.53
2022-08-05T11:24:04.819Z,19.13
2022-08-05T11:26:32.458Z,17.33
2022-08-05T11:29:12.789Z,18.59
2022-08-05T11:31:57.909Z,19.77
2022-08-05T11:34:47.473Z,21.56
2022-08-05T11:38:36.840Z,22.71
2022-08-05T11:41:12.970Z,23.51
2022-08-05T11:44:07.298Z,21.21
2022-08-05T11:46:58.196Z,18.69
2022-08-05T11:49:26.557Z,17.64
2022-08-05T11:51:57.456Z,16.99
2022-08-05T11:54:34.020Z,16.32
2022-08-05T11:57:08.470Z,17.72
2022-08-05T11:59:52.101Z,19.61
2022-08-05T12:02:32.038Z,21.74
2022-08-05T12:05:08.221Z,23.09
2022-08-05T12:08:10.384Z,23.96
2022-08-05T12:10:45.721Z,25.31
2022-08-05T12:13:17.337Z,25.26
2022-08-05T12:15:49.639Z,26.44
2022-08-05T12:18:38.861Z,26.45
2022-08-05T12:21:18.885Z,26.88
2022-08-05T12:24:04.611Z,26.77
2022-08-05T12:26:39.261Z,27.28
2022-08-05T12:29:23.389Z,27.07
2022-08-05T12:31:56.400Z,26.58
2022-08-05T12:34:46.442Z,24.56
2022-08-05T12:37:21.635Z,22.61
2022-08-05T12:39:53.934Z,22.80
2022-08-05T12:42:25.306Z,23.27
2022-08-05T12:45:12.081Z,23.66
2022-08-05T12:47:43.435Z,23.66
2022-08-05T12:50:32.059Z,22.56
2022-08-05T12:53:00.334Z,22.60
2022-08-05T12:55:32.491Z,22.82
2022-08-05T12:58:52.570Z,21.84
2022-08-05T13:02:01.666Z,22.04
2022-08-05T13:03:43.059Z,21.47
2022-08-05T13:06:17.861Z,21.63
2022-08-05T13:08:52.283Z,21.95
2022-08-05T13:12:02.099Z,22.46
2022-08-05T13:14:24.945Z,23.03
2022-08-05T13:17:09.795Z,23.58
2022-08-05T13:19:50.896Z,24.07
2022-08-05T13:22:28.437Z,24.53
2022-08-05T13:25:00.431Z,24.85
2022-08-05T13:27:39.984Z,25.06
2022-08-05T13:30:33.619Z,25.41
2022-08-05T13:33:01.446Z,25.91
2022-08-05T13:35:43.297Z,26.05
2022-08-05T13:38:28.410Z,26.18
2022-08-05T13:41:00.376Z,26.47
2022-08-05T13:43:45.377Z,26.33
2022-08-05T13:46:30.715Z,26.52
2022-08-05T13:49:10.182Z,26.75
2022-08-05T13:51:46.119Z,26.72
2022-08-05T13:54:17.114Z,26.90
2022-08-05T13:56:50.759Z,27.37
2022-08-05T13:59:24.441Z,27.50
2022-08-05T14:01:56.825Z,27.71
2022-08-05T14:04:53.187Z,27.67
2022-08-05T14:07:26.398Z,27.39
2022-08-05T14:10:13.703Z,26.91
2022-08-05T14:12:48.766Z,27.18
2022-08-05T14:16:04.404Z,27.10
2022-08-05T14:18:18.727Z,27.04
2022-08-05T14:20:54.725Z,27.19
2022-08-05T14:23:25.639Z,27.61
2022-08-05T14:26:04.965Z,27.67
2022-08-05T14:28:52.077Z,27.53
2022-08-05T14:31:54.378Z,27.86
2022-08-05T14:34:11.934Z,27.97
2022-08-05T14:36:39.713Z,27.69
2022-08-05T14:39:07.561Z,27.81
2022-08-05T14:41:38.686Z,27.72
2022-08-05T14:44:20.724Z,28.12
2022-08-05T14:46:49.626Z,27.54
2022-08-05T14:49:17.157Z,27.79
2022-08-05T14:51:44.688Z,27.92
2022-08-05T14:54:28.639Z,27.41
2022-08-05T14:56:59.419Z,27.25
2022-08-05T14:59:29.747Z,26.97
2022-08-05T15:02:15.737Z,27.20
2022-08-05T15:04:45.011Z,27.52
2022-08-05T15:08:08.792Z,27.48
2022-08-05T15:10:03.730Z,27.82
2022-08-05T15:12:45.804Z,27.81
2022-08-05T15:15:55.917Z,28.00
2022-08-05T15:18:11.134Z,28.26
2022-08-05T15:20:42.391Z,28.58
2022-08-05T15:23:12.044Z,28.88
2022-08-05T15:25:52.619Z,29.00
2022-08-05T15:28:27.548Z,29.46
2022-08-05T15:30:56.370Z,29.76
2022-08-05T15:34:04.545Z,29.85
2022-08-05T15:36:24.109Z,29.98
2022-08-05T15:40:58.698Z,30.05
2022-08-05T15:41:58.564Z,30.08
2022-08-05T15:44:30.349Z,30.26
2022-08-05T15:47:01.018Z,30.63
2022-08-05T15:49:48.048Z,30.50
2022-08-05T15:52:51.811Z,30.52
2022-08-05T15:55:07.022Z,29.89
2022-08-05T15:57:40.493Z,30.18
2022-08-05T16:00:09.664Z,30.63
2022-08-05T16:02:41.580Z,30.30
2022-08-05T16:05:11.272Z,30.68
2022-08-05T16:07:46.546Z,31.08
2022-08-05T16:10:16.924Z,31.00
2022-08-05T16:12:51.579Z,31.16
2022-08-05T16:15:21.799Z,31.03
2022-08-05T16:17:57.768Z,31.60
2022-08-05T16:20:25.868Z,30.99
2022-08-05T16:22:55.519Z,31.48
2022-08-05T16:25:32.135Z,31.51
2022-08-05T16:28:05.865Z,31.54
2022-08-05T16:30:34.402Z,31.63
2022-08-05T16:33:04.688Z,31.75
2022-08-05T16:35:42.429Z,31.73
2022-08-05T16:38:23.747Z,31.93
2022-08-05T16:41:00.887Z,32.49
2022-08-05T16:43:31.929Z,32.25
2022-08-05T16:46:06.167Z,32.32
2022-08-05T16:48:38.555Z,32.62
2022-08-05T16:51:10.141Z,32.50
2022-08-05T16:54:04.706Z,32.63
2022-08-05T16:56:29.585Z,33.04
2022-08-05T16:58:58.478Z,33.10
2022-08-05T17:01:26.465Z,33.04
2022-08-05T17:03:54.076Z,33.32
2022-08-05T17:06:24.536Z,33.32
2022-08-05T17:08:54.372Z,33.70
2022-08-05T17:11:25.935Z,33.65
2022-08-05T17:14:05.418Z,33.86
2022-08-05T17:16:38.353Z,34.03
2022-08-05T17:19:07.324Z,33.75
2022-08-05T17:21:36.752Z,34.18
2022-08-05T17:24:14.378Z,34.29
2022-08-05T17:26:55.519Z,33.99
2022-08-05T17:29:33.647Z,34.39
2022-08-05T17:32:11.824Z,34.12
2022-08-05T17:34:48.374Z,34.00
2022-08-05T17:37:40.648Z,34.22
2022-08-05T17:40:27.938Z,34.35
2022-08-05T17:42:59.103Z,34.24
2022-08-05T17:45:29.527Z,34.24
2022-08-05T17:48:07.935Z,34.69
2022-08-05T17:50:35.872Z,34.39
2022-08-05T17:53:05.217Z,34.93
2022-08-05T17:55:39.460Z,35.17
2022-08-05T17:58:10.782Z,35.21
2022-08-05T18:00:44.935Z,35.36
2022-08-05T18:03:39.372Z,35.18
2022-08-05T18:06:12.118Z,35.28
2022-08-05T18:08:46.178Z,35.73
2022-08-05T18:11:23.952Z,36.17
2022-08-05T18:14:03.703Z,36.27
2022-08-05T18:16:33.279Z,36.12
2022-08-05T18:19:05.414Z,37.10
2022-08-05T18:22:07.837Z,36.67
2022-08-05T18:24:25.983Z,37.30
2022-08-05T18:26:54.654Z,37.14
2022-08-05T18:29:39.947Z,37.29
2022-08-05T18:32:12.603Z,37.49
2022-08-05T18:34:42.983Z,37.54
2022-08-05T18:37:12.570Z,37.50
2022-08-05T18:40:31.742Z,37.93
2022-08-05T18:42:28.597Z,38.29
2022-08-05T18:44:56.701Z,38.07
2022-08-05T18:47:26.456Z,38.19
2022-08-05T18:50:15.448Z,37.74
2022-08-05T18:52:50.913Z,37.83
2022-08-05T18:55:20.386Z,37.49
2022-08-05T18:57:53.201Z,37.49
2022-08-05T19:00:27.001Z,37.61
2022-08-05T19:02:57.863Z,37.26
2022-08-05T19:06:11.319Z,37.33
2022-08-05T19:08:22.059Z,37.76
2022-08-05T19:10:59.706Z,38.27
2022-08-05T19:13:35.977Z,37.87
2022-08-05T19:16:25.030Z,38.06
2022-08-05T19:18:53.694Z,37.98
2022-08-05T19:21:26.060Z,38.46
2022-08-05T19:24:05.686Z,38.19
2022-08-05T19:26:36.892Z,38.50
2022-08-05T19:29:40.174Z,38.38
2022-08-05T19:32:11.516Z,38.61
2022-08-05T19:34:39.489Z,38.37
2022-08-05T19:37:07.248Z,38.96
2022-08-05T19:39:45.897Z,38.96
2022-08-05T19:42:35.553Z,38.83
2022-08-05T19:45:05.971Z,39.30
2022-08-05T19:47:40.461Z,39.29
2022-08-05T19:50:10.661Z,39.16
2022-08-05T19:52:40.049Z,39.42
2022-08-05T19:56:11.516Z,39.77
2022-08-05T19:58:19.704Z,40.47
2022-08-05T20:00:46.744Z,40.32
2022-08-05T20:03:14.573Z,40.53
2022-08-05T20:05:49.913Z,41.02
2022-08-05T20:08:18.205Z,40.60
2022-08-05T20:10:45.750Z,40.76
2022-08-05T20:13:18.382Z,41.39
2022-08-05T20:15:58.102Z,41.58
2022-08-05T20:18:33.094Z,41.54
2022-08-05T20:21:04.750Z,41.71
2022-08-05T20:23:39.653Z,42.02
2022-08-05T20:26:20.781Z,42.07
2022-08-05T20:28:50.993Z,42.01
2022-08-05T20:31:21.907Z,42.27
2022-08-05T20:33:51.769Z,42.63
2022-08-05T20:36:21.374Z,43.14
2022-08-05T20:38:53.343Z,43.11
2022-08-05T20:41:44.290Z,43.23
2022-08-05T20:44:18.978Z,43.35
2022-08-05T20:47:06.753Z,44.29
2022-08-05T20:49:39.872Z,44.10
2022-08-05T20:52:08.837Z,44.21
2022-08-05T20:54:59.488Z,44.11
2022-08-05T20:57:43.430Z,43.82
2022-08-05T21:00:35.004Z,44.39
2022-08-05T21:03:07.941Z,44.45
2022-08-05T21:05:54.269Z,45.05
2022-08-05T21:08:41.385Z,45.06
2022-08-05T21:11:11.957Z,44.77
2022-08-05T21:13:55.874Z,45.02
2022-08-05T21:16:29.377Z,45.03
2022-08-05T21:19:01.695Z,45.17
2022-08-05T21:21:39.848Z,45.29
2022-08-05T21:24:15.333Z,45.46
2022-08-05T21:26:50.255Z,45.60
2022-08-05T21:29:26.493Z,45.79
2022-08-05T21:31:58.917Z,45.81
2022-08-05T21:34:26.425Z,45.74
2022-08-05T21:36:55.873Z,45.86
2022-08-05T21:39:26.971Z,46.44
2022-08-05T21:42:01.420Z,46.10
2022-08-05T21:44:31.730Z,45.58
2022-08-05T21:47:00.401Z,45.91
2022-08-05T21:50:00.414Z,45.81
2022-08-05T21:52:26.858Z,46.14
2022-08-05T21:55:05.993Z,46.52
2022-08-05T21:57:35.485Z,46.29
2022-08-05T22:00:11.266Z,46.30
2022-08-05T22:02:42.936Z,46.55
2022-08-05T22:05:12.307Z,46.53
2022-08-05T22:07:58.364Z,46.55
2022-08-05T22:10:31.038Z,46.78
2022-08-05T22:13:58.812Z,46.74
2022-08-05T22:16:02.071Z,46.76
2022-08-05T22:18:36.086Z,46.86
2022-08-05T22:21:19.410Z,46.91
2022-08-05T22:24:13.191Z,47.37
2022-08-05T22:27:17.384Z,47.18
2022-08-05T22:29:45.917Z,47.21
2022-08-05T22:32:22.986Z,47.37
2022-08-05T22:34:51.606Z,47.72
2022-08-05T22:37:19.219Z,47.79
2022-08-05T22:39:50.525Z,47.98
2022-08-05T22:42:25.430Z,47.98
2022-08-05T22:44:56.823Z,47.86
2022-08-05T22:47:29.828Z,47.98
2022-08-05T22:50:19.119Z,48.04
2022-08-05T22:52:51.307Z,48.14
2022-08-05T22:55:21.752Z,48.41
2022-08-05T22:57:55.844Z,48.74
2022-08-05T23:00:26.463Z,48.35
2022-08-05T23:02:58.073Z,48.46
2022-08-05T23:05:25.932Z,48.30
2022-08-05T23:07:54.360Z,48.55
2022-08-05T23:10:33.985Z,48.61
2022-08-05T23:13:02.468Z,48.84
2022-08-05T23:15:34.810Z,48.70
2022-08-05T23:18:06.138Z,48.85
2022-08-05T23:20:39.724Z,49.05
2022-08-05T23:23:08.815Z,49.04
2022-08-05T23:25:51.003Z,48.77
2022-08-05T23:28:22.368Z,48.63
2022-08-05T23:30:53.831Z,48.56
2022-08-05T23:34:02.730Z,48.76
2022-08-05T23:36:13.613Z,48.82
2022-08-05T23:38:42.817Z,48.60
2022-08-05T23:41:11.312Z,48.90
2022-08-05T23:44:05.855Z,48.66
2022-08-05T23:46:26.640Z,48.66
2022-08-05T23:49:03.738Z,48.86
2022-08-05T23:52:02.235Z,48.86
2022-08-05T23:54:36.599Z,48.78
2022-08-05T23:57:06.738Z,48.97
